createdAt,value
2023-03-12T00:00:20.378Z,4.15
2023-03-12T00:02:47.469Z,5.80
2023-03-12T00:05:14.698Z,5.45
2023-03-12T00:07:41.923Z,3.10
2023-03-12T00:10:09.746Z,7.30
2023-03-12T00:12:36.929Z,4.63
2023-03-12T00:15:04.702Z,4.35
2023-03-12T00:17:31.804Z,3.97
2023-03-12T00:19:59.100Z,5.53
2023-03-12T00:22:26.664Z,4.15
2023-03-12T00:24:55.063Z,5.80
2023-03-12T00:27:23.770Z,3.38
2023-03-12T00:29:50.820Z,4.57
2023-03-12T00:32:18.000Z,4.70
2023-03-12T00:34:50.228Z,3.03
2023-03-12T00:37:17.271Z,4.82
2023-03-12T00:39:44.380Z,4.03
2023-03-12T00:42:11.565Z,3.88
2023-03-12T00:44:38.769Z,3.90
2023-03-12T00:47:06.226Z,3.42
2023-03-12T00:49:33.353Z,3.33
2023-03-12T00:52:00.398Z,3.63
2023-03-12T00:54:27.556Z,4.03
2023-03-12T00:56:54.714Z,3.88
2023-03-12T00:59:21.953Z,4.28
2023-03-12T01:01:49.750Z,7.85
2023-03-12T01:04:17.785Z,4.80
2023-03-12T01:06:44.924Z,3.72
2023-03-12T01:09:11.984Z,5.20
2023-03-12T01:11:39.533Z,4.68
2023-03-12T01:14:08.359Z,3.28
2023-03-12T01:16:35.600Z,3.17
2023-03-12T01:19:03.866Z,3.80
2023-03-12T01:21:31.550Z,7.35
2023-03-12T01:23:58.847Z,3.50
2023-03-12T01:26:26.003Z,3.67
2023-03-12T01:28:53.081Z,3.80
2023-03-12T01:31:20.543Z,4.43
2023-03-12T01:33:51.450Z,3.80
2023-03-12T01:36:21.513Z,4.05
2023-03-12T01:38:51.798Z,4.05
2023-03-12T01:41:19.500Z,3.95
2023-03-12T01:43:47.012Z,3.20
2023-03-12T01:46:36.403Z,4.18
2023-03-12T01:49:09.650Z,5.10
2023-03-12T01:51:40.534Z,4.78
2023-03-12T01:54:13.796Z,2.58
2023-03-12T01:56:41.725Z,3.25
2023-03-12T01:59:16.903Z,3.28
2023-03-12T02:01:44.937Z,3.55
2023-03-12T02:04:13.748Z,3.47
2023-03-12T02:06:49.488Z,2.50
2023-03-12T02:09:20.318Z,4.47
2023-03-12T02:11:48.795Z,4.70
2023-03-12T02:14:16.383Z,4.80
2023-03-12T02:16:44.666Z,3.65
2023-03-12T02:19:22.447Z,3.15
2023-03-12T02:21:49.850Z,3.35
2023-03-12T02:24:42.637Z,2.92
2023-03-12T02:27:11.955Z,2.95
2023-03-12T02:29:44.274Z,3.03
2023-03-12T02:32:21.438Z,3.03
2023-03-12T02:34:50.762Z,2.80
2023-03-12T02:37:19.676Z,3.75
2023-03-12T02:39:54.945Z,3.15
2023-03-12T02:42:24.167Z,4.05
2023-03-12T02:44:51.455Z,2.97
2023-03-12T02:47:18.577Z,3.10
2023-03-12T02:49:46.677Z,3.80
2023-03-12T02:52:13.869Z,5.28
2023-03-12T02:54:42.274Z,4.00
2023-03-12T02:57:09.636Z,4.18
2023-03-12T02:59:37.322Z,4.40
2023-03-12T03:02:07.109Z,4.07
2023-03-12T03:04:35.082Z,3.70
2023-03-12T03:07:02.903Z,3.92
2023-03-12T03:09:30.036Z,4.55
2023-03-12T03:11:57.227Z,3.60
2023-03-12T03:14:25.945Z,3.55
2023-03-12T03:16:53.699Z,3.88
2023-03-12T03:19:22.881Z,4.20
2023-03-12T03:21:49.986Z,5.78
2023-03-12T03:24:17.305Z,6.97
2023-03-12T03:26:44.707Z,5.43
2023-03-12T03:29:11.987Z,5.03
2023-03-12T03:31:39.114Z,6.90
2023-03-12T03:34:06.527Z,4.70
2023-03-12T03:36:33.614Z,5.38
2023-03-12T03:39:05.763Z,5.10
2023-03-12T03:41:33.374Z,3.88
2023-03-12T03:44:00.642Z,4.38
2023-03-12T03:46:30.442Z,5.38
2023-03-12T03:49:02.684Z,4.85
2023-03-12T03:51:31.075Z,5.63
2023-03-12T03:54:03.855Z,3.92
2023-03-12T03:56:31.342Z,3.05
2023-03-12T03:59:01.766Z,4.13
2023-03-12T04:01:29.691Z,5.53
2023-03-12T04:03:57.390Z,3.25
2023-03-12T04:06:24.672Z,3.78
2023-03-12T04:08:52.462Z,5.18
2023-03-12T04:11:23.729Z,4.40
2023-03-12T04:13:51.110Z,3.80
2023-03-12T04:16:21.461Z,3.15
2023-03-12T04:18:50.897Z,3.47
2023-03-12T04:21:18.372Z,3.97
2023-03-12T04:23:47.512Z,2.90
2023-03-12T04:26:15.529Z,4.13
2023-03-12T04:28:43.672Z,3.83
2023-03-12T04:31:12.336Z,2.85
2023-03-12T04:33:44.771Z,3.17
2023-03-12T04:36:13.437Z,3.17
2023-03-12T04:38:43.523Z,2.90
2023-03-12T04:41:14.160Z,3.33
2023-03-12T04:43:48.532Z,2.88
2023-03-12T04:46:17.091Z,2.83
2023-03-12T04:48:45.152Z,4.13
2023-03-12T04:51:13.478Z,2.90
2023-03-12T04:53:40.874Z,3.67
2023-03-12T04:56:10.290Z,3.97
2023-03-12T05:01:24.872Z,3.15
2023-03-12T05:03:53.833Z,2.60
2023-03-12T05:06:22.124Z,3.63
2023-03-12T05:08:49.686Z,3.63
2023-03-12T05:11:17.739Z,5.90
2023-03-12T05:13:45.660Z,4.15
2023-03-12T05:16:13.516Z,4.00
2023-03-12T05:18:41.772Z,3.75
2023-03-12T05:21:13.330Z,3.55
2023-03-12T05:23:42.668Z,3.47
2023-03-12T05:26:31.978Z,5.35
2023-03-12T05:29:08.566Z,3.65
2023-03-12T05:31:36.610Z,3.67
2023-03-12T05:34:06.266Z,4.07
2023-03-12T05:36:37.693Z,5.15
2023-03-12T05:39:05.488Z,3.75
2023-03-12T05:41:34.066Z,3.13
2023-03-12T05:44:07.154Z,5.35
2023-03-12T05:46:35.967Z,4.13
2023-03-12T05:49:03.243Z,5.35
2023-03-12T05:51:32.409Z,3.97
2023-03-12T05:54:00.233Z,3.80
2023-03-12T05:56:28.550Z,4.13
2023-03-12T05:58:56.833Z,5.55
2023-03-12T06:01:27.420Z,4.50
2023-03-12T06:03:57.182Z,3.50
2023-03-12T06:06:25.807Z,4.35
2023-03-12T06:08:53.732Z,4.32
2023-03-12T06:11:24.219Z,5.82
2023-03-12T06:13:51.472Z,4.43
2023-03-12T06:16:21.793Z,6.00
2023-03-12T06:18:49.505Z,5.35
2023-03-12T06:21:21.005Z,5.75
2023-03-12T06:23:49.417Z,3.72
2023-03-12T06:26:22.621Z,5.05
2023-03-12T06:28:51.377Z,5.57
2023-03-12T06:31:19.350Z,5.57
2023-03-12T06:33:46.530Z,7.22
2023-03-12T06:36:13.855Z,5.75
2023-03-12T06:38:41.142Z,5.30
2023-03-12T06:41:12.148Z,4.38
2023-03-12T06:43:40.818Z,4.97
2023-03-12T06:46:11.472Z,4.38
2023-03-12T06:48:41.447Z,3.58
2023-03-12T06:51:10.222Z,4.18
2023-03-12T06:53:40.416Z,4.05
2023-03-12T06:56:09.845Z,3.20
2023-03-12T06:58:37.331Z,3.42
2023-03-12T07:01:05.063Z,5.10
2023-03-12T07:03:32.456Z,3.65
2023-03-12T07:05:59.633Z,3.63
2023-03-12T07:08:31.207Z,4.15
2023-03-12T07:11:01.745Z,3.75
2023-03-12T07:13:30.143Z,5.22
2023-03-12T07:15:57.664Z,4.50
2023-03-12T07:18:24.997Z,4.00
2023-03-12T07:20:52.287Z,3.08
2023-03-12T07:23:19.899Z,4.00
2023-03-12T07:25:48.099Z,4.07
2023-03-12T07:28:15.848Z,5.38
2023-03-12T07:30:43.090Z,3.90
2023-03-12T07:33:12.706Z,4.47
2023-03-12T07:35:40.616Z,4.78
2023-03-12T07:38:08.635Z,4.32
2023-03-12T07:40:36.742Z,3.20
2023-03-12T07:43:07.184Z,3.88
2023-03-12T07:45:36.022Z,4.20
2023-03-12T07:48:03.250Z,4.85
2023-03-12T07:50:30.426Z,4.18
2023-03-12T07:52:57.664Z,4.30
2023-03-12T07:55:24.793Z,4.15
2023-03-12T07:57:52.048Z,3.63
2023-03-12T08:00:19.707Z,3.95
2023-03-12T08:02:47.126Z,3.85
2023-03-12T08:05:14.889Z,4.65
2023-03-12T08:07:41.965Z,4.05
2023-03-12T08:10:10.959Z,4.18
2023-03-12T08:12:38.083Z,5.03
2023-03-12T08:15:06.867Z,3.50
2023-03-12T08:17:33.956Z,4.60
2023-03-12T08:20:01.141Z,3.83
2023-03-12T08:22:28.262Z,4.38
2023-03-12T08:24:55.292Z,4.82
2023-03-12T08:27:22.590Z,4.57
2023-03-12T08:29:49.805Z,7.70
2023-03-12T08:32:17.378Z,5.20
2023-03-12T08:34:44.560Z,3.65
2023-03-12T08:37:11.734Z,5.15
2023-03-12T08:39:38.995Z,3.95
2023-03-12T08:42:07.771Z,3.83
2023-03-12T08:44:35.086Z,7.55
2023-03-12T08:47:02.347Z,5.47
2023-03-12T08:49:29.587Z,5.22
2023-03-12T08:51:57.147Z,5.82
2023-03-12T08:54:24.251Z,4.22
2023-03-12T08:56:52.542Z,3.92
2023-03-12T08:59:20.792Z,5.68
2023-03-12T09:01:48.325Z,4.05
2023-03-12T09:04:15.703Z,4.32
2023-03-12T09:06:43.698Z,4.90
2023-03-12T09:09:10.959Z,3.92
2023-03-12T09:11:40.094Z,5.22
2023-03-12T09:15:00.997Z,5.72
2023-03-12T09:16:55.441Z,4.65
2023-03-12T09:19:23.541Z,4.90
2023-03-12T09:21:50.603Z,3.75
2023-03-12T09:24:17.867Z,4.55
2023-03-12T09:26:45.291Z,5.03
2023-03-12T09:29:12.451Z,4.35
2023-03-12T09:31:39.885Z,5.07
2023-03-12T09:34:07.380Z,4.45
2023-03-12T09:36:34.588Z,3.95
2023-03-12T09:39:02.586Z,3.80
2023-03-12T09:41:34.709Z,5.50
2023-03-12T09:44:13.117Z,4.20
2023-03-12T09:46:47.984Z,5.47
2023-03-12T09:49:23.205Z,4.25
2023-03-12T09:51:55.744Z,4.85
2023-03-12T09:54:34.376Z,4.40
2023-03-12T09:57:09.233Z,3.58
2023-03-12T09:59:37.073Z,4.15
2023-03-12T10:02:21.899Z,5.55
2023-03-12T10:05:00.045Z,4.05
2023-03-12T10:07:51.116Z,4.75
2023-03-12T10:10:26.257Z,4.90
2023-03-12T10:13:14.417Z,4.75
2023-03-12T10:16:01.381Z,4.13
2023-03-12T10:18:45.219Z,7.53
2023-03-12T10:21:24.469Z,4.43
2023-03-12T10:23:58.229Z,5.00
2023-03-12T10:26:39.448Z,4.33
2023-03-12T10:29:19.057Z,5.85
2023-03-12T10:32:11.547Z,4.07
2023-03-12T10:34:41.368Z,4.80
2023-03-12T10:37:16.710Z,7.55
2023-03-12T10:39:44.912Z,3.97
2023-03-12T10:42:18.573Z,4.18
2023-03-12T10:44:51.222Z,4.78
2023-03-12T10:47:33.045Z,5.18
2023-03-12T10:50:25.562Z,4.60
2023-03-12T10:53:12.793Z,5.18
2023-03-12T10:55:40.225Z,5.30
2023-03-12T10:58:07.271Z,4.63
2023-03-12T11:00:34.624Z,4.95
2023-03-12T11:03:04.395Z,5.13
2023-03-12T11:05:33.538Z,5.75
2023-03-12T11:08:02.169Z,4.72
2023-03-12T11:10:46.417Z,4.90
2023-03-12T11:13:33.605Z,4.72
2023-03-12T11:16:03.301Z,4.55
2023-03-12T11:18:34.499Z,5.25
2023-03-12T11:21:10.877Z,4.25
2023-03-12T11:23:43.909Z,4.35
2023-03-12T11:26:19.784Z,4.95
2023-03-12T11:28:51.742Z,5.05
2023-03-12T11:31:26.774Z,5.20
2023-03-12T11:34:01.035Z,5.32
2023-03-12T11:36:34.126Z,4.90
2023-03-12T11:39:21.253Z,5.15
2023-03-12T11:42:01.480Z,4.40
2023-03-12T11:44:43.578Z,6.03
2023-03-12T11:47:31.604Z,4.75
2023-03-12T11:50:28.432Z,5.35
2023-03-12T11:53:02.972Z,5.15
2023-03-12T11:55:50.981Z,6.03
2023-03-12T11:58:28.226Z,5.68
2023-03-12T12:01:28.507Z,4.25
2023-03-12T12:04:24.502Z,5.00
2023-03-12T12:06:59.214Z,5.05
2023-03-12T12:12:21.311Z,7.68
2023-03-12T12:14:49.795Z,4.40
2023-03-12T12:17:37.975Z,4.65
2023-03-12T12:20:10.158Z,6.07
2023-03-12T12:22:57.010Z,4.25
2023-03-12T12:25:59.929Z,4.30
2023-03-12T12:28:51.587Z,4.72
2023-03-12T12:31:46.489Z,5.20
2023-03-12T12:34:33.562Z,5.35
2023-03-12T12:37:14.788Z,81.18
2023-03-12T12:39:48.716Z,7.20
2023-03-12T12:42:23.296Z,5.15
2023-03-12T12:47:32.853Z,7.63
2023-03-12T12:50:01.342Z,7.68
2023-03-12T12:52:29.163Z,4.55
2023-03-12T12:55:19.663Z,5.05
2023-03-12T12:57:56.998Z,6.40
2023-03-12T13:00:39.458Z,4.70
2023-03-12T13:03:07.259Z,6.13
2023-03-12T13:05:37.719Z,5.32
2023-03-12T13:08:08.840Z,4.22
2023-03-12T13:10:35.980Z,4.93
2023-03-12T13:13:11.712Z,5.45
2023-03-12T13:15:43.668Z,6.50
2023-03-12T13:18:29.399Z,5.38
2023-03-12T13:21:13.407Z,6.88
2023-03-12T13:24:20.382Z,4.13
2023-03-12T13:27:13.727Z,7.13
2023-03-12T13:29:42.321Z,4.28
2023-03-12T13:32:30.839Z,3.53
2023-03-12T13:34:58.506Z,4.35
2023-03-12T13:37:50.680Z,5.03
2023-03-12T13:40:36.124Z,4.90
2023-03-12T13:43:11.855Z,4.60
2023-03-12T13:46:02.517Z,4.10
2023-03-12T13:48:30.075Z,4.47
2023-03-12T13:51:00.508Z,4.75
2023-03-12T13:53:35.812Z,4.97
2023-03-12T13:56:11.593Z,5.93
2023-03-12T13:59:02.011Z,3.60
2023-03-12T14:01:35.563Z,4.25
2023-03-12T14:04:07.848Z,3.28
2023-03-12T14:06:48.315Z,3.70
2023-03-12T14:09:38.688Z,4.20
2023-03-12T14:12:15.671Z,4.25
2023-03-12T14:14:56.469Z,4.47
2023-03-12T14:17:28.225Z,3.78
2023-03-12T14:20:02.445Z,3.20
2023-03-12T14:22:33.794Z,4.93
2023-03-12T14:25:12.278Z,4.80
2023-03-12T14:27:40.429Z,5.40
2023-03-12T14:30:19.232Z,4.07
2023-03-12T14:32:48.874Z,5.90
2023-03-12T14:35:19.643Z,5.45
2023-03-12T14:38:09.751Z,5.20
2023-03-12T14:40:46.214Z,6.07
2023-03-12T14:43:33.095Z,3.75
2023-03-12T14:46:04.867Z,4.55
2023-03-12T14:48:34.819Z,4.35
2023-03-12T14:51:03.987Z,4.38
2023-03-12T14:53:37.000Z,4.28
2023-03-12T14:56:06.294Z,6.03
2023-03-12T14:58:35.136Z,3.30
2023-03-12T15:01:05.780Z,3.78
2023-03-12T15:03:43.940Z,3.38
2023-03-12T15:06:20.006Z,4.15
2023-03-12T15:08:47.353Z,3.83
2023-03-12T15:11:20.003Z,3.35
2023-03-12T15:13:47.530Z,4.32
2023-03-12T15:16:14.781Z,3.63
2023-03-12T15:18:42.594Z,4.13
2023-03-12T15:21:09.959Z,4.30
2023-03-12T15:23:39.379Z,4.25
2023-03-12T15:26:13.054Z,4.80
2023-03-12T15:28:40.746Z,3.25
2023-03-12T15:31:15.359Z,4.28
2023-03-12T15:36:23.786Z,4.93
2023-03-12T15:38:58.151Z,6.28
2023-03-12T15:41:32.623Z,5.88
2023-03-12T15:44:00.851Z,9.68
2023-03-12T15:46:28.969Z,5.68
2023-03-12T15:49:00.270Z,5.57
2023-03-12T15:51:31.762Z,4.90
2023-03-12T15:54:02.369Z,5.63
2023-03-12T15:56:31.801Z,3.70
2023-03-12T15:59:19.337Z,6.00
2023-03-12T16:01:53.196Z,4.97
2023-03-12T16:04:21.157Z,4.20
2023-03-12T16:06:49.530Z,5.25
2023-03-12T16:09:20.216Z,5.55
2023-03-12T16:11:48.247Z,5.15
2023-03-12T16:14:19.127Z,5.38
2023-03-12T16:16:47.052Z,5.50
2023-03-12T16:19:17.674Z,4.20
2023-03-12T16:21:45.805Z,4.38
2023-03-12T16:24:13.310Z,6.03
2023-03-12T16:26:49.053Z,5.22
2023-03-12T16:29:18.238Z,6.45
2023-03-12T16:31:50.238Z,5.72
2023-03-12T16:34:17.365Z,4.45
2023-03-12T16:36:44.921Z,6.60
2023-03-12T16:39:12.182Z,6.15
2023-03-12T16:41:39.993Z,7.28
2023-03-12T16:44:09.489Z,6.45
2023-03-12T16:46:37.253Z,5.97
2023-03-12T16:49:04.993Z,5.60
2023-03-12T16:51:32.233Z,6.00
2023-03-12T16:54:09.523Z,7.53
2023-03-12T16:56:41.364Z,7.53
2023-03-12T16:59:18.240Z,7.57
2023-03-12T17:01:45.631Z,7.70
2023-03-12T17:04:13.167Z,6.07
2023-03-12T17:06:40.608Z,6.18
2023-03-12T17:09:08.624Z,6.88
2023-03-12T17:11:38.087Z,5.82
2023-03-12T17:14:18.448Z,4.93
2023-03-12T17:16:45.853Z,7.03
2023-03-12T17:19:13.187Z,7.38
2023-03-12T17:21:40.751Z,7.97
2023-03-12T17:24:08.303Z,6.45
2023-03-12T17:26:35.475Z,8.00
2023-03-12T17:29:03.296Z,6.40
2023-03-12T17:31:31.839Z,6.20
2023-03-12T17:33:59.316Z,8.07
2023-03-12T17:36:27.065Z,6.30
2023-03-12T17:38:54.730Z,9.65
2023-03-12T17:41:27.012Z,6.38
2023-03-12T17:43:59.165Z,5.93
2023-03-12T17:46:26.835Z,6.75
2023-03-12T17:48:54.912Z,6.55
2023-03-12T17:51:22.773Z,6.20
2023-03-12T17:53:50.231Z,6.10
2023-03-12T17:56:18.359Z,9.73
2023-03-12T17:58:46.595Z,8.02
2023-03-12T18:01:15.041Z,8.65
2023-03-12T18:03:44.584Z,7.88
2023-03-12T18:06:12.562Z,7.00
2023-03-12T18:08:40.189Z,7.22
2023-03-12T18:11:07.642Z,8.75
2023-03-12T18:13:34.782Z,7.68
2023-03-12T18:16:02.020Z,7.63
2023-03-12T18:18:29.373Z,8.27
2023-03-12T18:20:56.562Z,7.35
2023-03-12T18:23:25.314Z,8.43
2023-03-12T18:25:52.408Z,7.63
2023-03-12T18:28:20.964Z,10.65
2023-03-12T18:30:48.988Z,10.35
2023-03-12T18:33:16.745Z,12.15
2023-03-12T18:35:44.663Z,7.28
2023-03-12T18:38:12.213Z,8.52
2023-03-12T18:40:39.596Z,7.82
2023-03-12T18:43:06.798Z,7.38
2023-03-12T18:45:34.066Z,7.75
2023-03-12T18:48:01.208Z,8.98
2023-03-12T18:50:28.377Z,9.15
2023-03-12T18:52:55.622Z,8.13
2023-03-12T18:55:23.018Z,8.90
2023-03-12T18:57:50.413Z,7.57
2023-03-12T19:00:18.705Z,8.15
2023-03-12T19:02:48.054Z,8.30
2023-03-12T19:05:16.350Z,8.63
2023-03-12T19:07:44.407Z,9.63
2023-03-12T19:10:13.036Z,10.93
2023-03-12T19:12:51.455Z,6.60
2023-03-12T19:15:20.566Z,10.32
2023-03-12T19:17:47.895Z,11.27
2023-03-12T19:20:15.877Z,13.00
2023-03-12T19:22:43.218Z,15.95
2023-03-12T19:25:10.548Z,13.85
2023-03-12T19:27:37.841Z,12.80
2023-03-12T19:30:05.686Z,13.63
2023-03-12T19:32:42.326Z,18.05
2023-03-12T19:35:12.981Z,14.90
2023-03-12T19:37:40.534Z,15.30
2023-03-12T19:40:08.537Z,10.95
2023-03-12T19:42:35.664Z,9.48
2023-03-12T19:45:02.812Z,10.73
2023-03-12T19:47:33.211Z,10.65
2023-03-12T19:50:00.867Z,10.35
2023-03-12T19:52:28.342Z,9.48
2023-03-12T19:55:04.257Z,9.30
2023-03-12T19:57:33.120Z,13.73
2023-03-12T20:00:00.303Z,16.40
2023-03-12T20:02:27.925Z,22.67
2023-03-12T20:04:55.551Z,18.20
2023-03-12T20:07:23.062Z,17.08
2023-03-12T20:09:50.382Z,19.70
2023-03-12T20:12:18.001Z,22.05
2023-03-12T20:14:45.252Z,21.05
2023-03-12T20:17:12.459Z,21.42
2023-03-12T20:19:40.433Z,27.80
2023-03-12T20:22:08.719Z,25.73
2023-03-12T20:24:36.141Z,18.02
2023-03-12T20:27:04.186Z,13.10
2023-03-12T20:29:31.413Z,16.67
2023-03-12T20:31:58.789Z,16.70
2023-03-12T20:34:26.035Z,17.30
2023-03-12T20:36:53.106Z,16.83
2023-03-12T20:39:21.086Z,12.82
2023-03-12T20:41:50.119Z,14.65
2023-03-12T20:44:18.911Z,17.98
2023-03-12T20:46:47.393Z,13.50
2023-03-12T20:49:15.295Z,14.95
2023-03-12T20:51:44.760Z,13.70
2023-03-12T20:54:12.824Z,11.90
2023-03-12T20:56:43.581Z,11.07
2023-03-12T20:59:12.409Z,14.20
2023-03-12T21:01:39.768Z,18.55
2023-03-12T21:04:07.009Z,26.85
2023-03-12T21:06:34.240Z,22.77
2023-03-12T21:09:01.585Z,30.40
2023-03-12T21:11:28.788Z,20.67
2023-03-12T21:13:56.099Z,18.30
2023-03-12T21:16:23.569Z,16.73
2023-03-12T21:18:54.900Z,16.02
2023-03-12T21:21:22.014Z,14.95
2023-03-12T21:23:49.558Z,17.20
2023-03-12T21:26:18.364Z,14.38
2023-03-12T21:28:46.092Z,17.75
2023-03-12T21:31:15.407Z,16.35
2023-03-12T21:33:43.223Z,16.80
2023-03-12T21:36:12.684Z,16.90
2023-03-12T21:38:40.925Z,13.40
2023-03-12T21:41:09.620Z,12.52
2023-03-12T21:43:37.161Z,12.00
2023-03-12T21:46:07.217Z,12.77
2023-03-12T21:48:35.330Z,13.07
2023-03-12T21:51:04.464Z,12.93
2023-03-12T21:53:31.895Z,11.30
2023-03-12T21:56:01.040Z,14.80
2023-03-12T21:58:29.500Z,11.20
2023-03-12T22:01:14.383Z,12.10
2023-03-12T22:06:10.320Z,12.60
2023-03-12T22:08:38.244Z,10.93
2023-03-12T22:11:07.426Z,13.68
2023-03-12T22:13:35.315Z,12.35
2023-03-12T22:16:06.904Z,13.13
2023-03-12T22:18:38.056Z,13.68
2023-03-12T22:21:05.554Z,14.32
2023-03-12T22:23:33.734Z,14.65
2023-03-12T22:26:03.636Z,16.73
2023-03-12T22:28:31.694Z,13.77
2023-03-12T22:31:02.146Z,14.05
2023-03-12T22:33:30.628Z,17.08
2023-03-12T22:35:58.540Z,14.55
2023-03-12T22:38:26.166Z,14.25
2023-03-12T22:40:55.657Z,18.38
2023-03-12T22:43:25.136Z,15.75
2023-03-12T22:45:54.296Z,15.70
2023-03-12T22:48:21.447Z,20.98
2023-03-12T22:50:55.960Z,23.65
2023-03-12T22:53:23.313Z,29.27
2023-03-12T22:56:01.540Z,30.10
2023-03-12T22:58:29.397Z,30.50
2023-03-12T23:01:17.529Z,31.70
2023-03-12T23:03:45.671Z,32.65
2023-03-12T23:06:20.763Z,27.75
2023-03-12T23:08:48.914Z,30.58
2023-03-12T23:11:17.633Z,23.13
2023-03-12T23:13:46.515Z,20.90
2023-03-12T23:16:16.991Z,19.85
2023-03-12T23:18:44.637Z,26.67
2023-03-12T23:21:16.039Z,22.58
2023-03-12T23:23:44.077Z,20.33
2023-03-12T23:26:15.191Z,21.85
2023-03-12T23:28:42.806Z,21.33
2023-03-12T23:31:10.701Z,19.48
2023-03-12T23:33:38.613Z,17.65
2023-03-12T23:36:08.910Z,17.85
2023-03-12T23:38:37.615Z,17.23
2023-03-12T23:41:09.346Z,16.90
2023-03-12T23:43:36.612Z,16.38
2023-03-12T23:46:05.104Z,13.80
2023-03-12T23:48:33.599Z,16.70
2023-03-12T23:51:10.459Z,12.00
2023-03-12T23:53:38.859Z,10.57
2023-03-12T23:56:09.838Z,15.48
2023-03-12T23:58:37.279Z,11.68
